Time;durP1;ratioP1;P1;durP2;ratioP2;P2;SDS_P1;SDS_P2;PMS_P1;PMS_P2;Temp;Humidity;BMP_temperature;BMP_pressure;BME280_temperature;BME280_humidity;BME280_pressure;Samples;Min_cycle;Max_cycle;Signal;HPM_P1;HPM_P2
2023/03/16 00:00:21;;;;;;;5.47;3.53;;;5.40;58.00;;;7.94;43.55;101916.91;5117727;27;20184;-57
2023/03/16 00:02:48;;;;;;;5.20;3.43;;;5.40;57.80;;;7.93;43.60;101919.69;5135000;27;20199;-57
2023/03/16 00:05:15;;;;;;;8.50;2.93;;;5.40;57.90;;;7.93;43.65;101925.75;5135247;27;20716;-57
2023/03/16 00:07:42;;;;;;;5.23;2.53;;;5.40;57.90;;;7.92;43.76;101929.31;5129232;27;20204;-55
2023/03/16 00:10:11;;;;;;;3.20;2.63;;;5.40;57.90;;;7.94;43.48;101927.41;5108992;27;20317;-59
2023/03/16 00:12:42;;;;;;;4.03;2.50;;;5.30;58.00;;;7.96;43.70;101929.91;5114378;28;20189;-55
2023/03/16 00:15:10;;;;;;;3.23;2.37;;;5.30;58.20;;;7.96;43.80;101920.22;5114416;28;20254;-57
2023/03/16 00:17:37;;;;;;;6.90;3.20;;;5.30;58.30;;;7.97;44.19;101928.94;5113911;28;20679;-57
2023/03/16 00:20:05;;;;;;;5.30;2.87;;;5.30;58.80;;;7.98;43.94;101918.34;5114272;28;20179;-57
2023/03/16 00:22:33;;;;;;;9.03;3.43;;;5.30;58.90;;;7.95;44.31;101915.97;5114174;28;20200;-57
2023/03/16 00:25:00;;;;;;;4.17;3.10;;;5.30;59.10;;;7.94;44.68;101919.53;5114381;28;20531;-57
2023/03/16 00:27:28;;;;;;;4.80;3.00;;;5.30;59.20;;;7.93;44.38;101923.13;5114881;28;20193;-56
2023/03/16 00:29:56;;;;;;;6.90;3.53;;;5.20;59.20;;;7.89;44.59;101913.84;5114594;28;20197;-57
2023/03/16 00:32:27;;;;;;;7.00;3.37;;;5.20;59.50;;;7.87;44.52;101925.41;5114514;28;20197;-56
2023/03/16 00:34:54;;;;;;;6.00;2.90;;;5.20;59.40;;;7.88;44.61;101925.31;5114865;28;20213;-56
2023/03/16 00:37:23;;;;;;;3.27;2.53;;;5.20;59.50;;;7.89;44.42;101916.47;5114496;28;20280;-55
2023/03/16 00:39:54;;;;;;;4.67;3.20;;;5.20;59.70;;;7.91;45.08;101921.59;5114470;28;20193;-56
2023/03/16 00:42:28;;;;;;;7.93;3.53;;;5.20;60.30;;;7.92;45.07;101915.38;5114426;28;20296;-57
2023/03/16 00:44:58;;;;;;;6.00;3.10;;;5.20;60.10;;;7.92;44.70;101921.47;5114430;28;20264;-57
2023/03/16 00:47:28;;;;;;;6.20;3.03;;;5.20;60.20;;;7.95;45.48;101923.00;5113561;28;20247;-58
2023/03/16 00:49:56;;;;;;;5.50;3.27;;;5.20;61.00;;;8.01;45.50;101918.06;5114012;27;20254;-57
2023/03/16 00:52:26;;;;;;;5.50;2.97;;;5.30;60.90;;;8.03;44.99;101910.91;5114211;28;20200;-56
2023/03/16 00:54:54;;;;;;;6.20;2.83;;;5.30;60.40;;;8.03;44.53;101913.50;5114453;28;20852;-56
2023/03/16 00:57:24;;;;;;;5.97;3.30;;;5.30;60.20;;;7.99;44.75;101919.97;5104305;28;20194;-56
2023/03/16 00:59:51;;;;;;;6.50;3.47;;;5.30;60.00;;;7.95;44.28;101913.34;5093955;28;20195;-56
2023/03/16 01:02:23;;;;;;;5.57;3.37;;;5.20;59.70;;;7.86;44.33;101908.88;5133532;28;20187;-56
2023/03/16 01:04:53;;;;;;;4.33;2.97;;;5.20;59.60;;;7.77;44.76;101899.16;5118207;27;20707;-58
2023/03/16 01:07:20;;;;;;;9.03;3.30;;;5.10;59.40;;;7.68;44.43;101907.78;5106996;28;20279;-56
2023/03/16 01:09:47;;;;;;;5.00;2.80;;;5.00;59.40;;;7.58;44.95;101906.88;5120811;27;20200;-57
2023/03/16 01:12:18;;;;;;;3.37;2.73;;;5.00;59.50;;;7.52;44.64;101902.13;5117580;28;20217;-55
2023/03/16 01:14:46;;;;;;;4.97;3.03;;;4.90;59.40;;;7.50;44.92;101906.69;5118965;28;20290;-57
2023/03/16 01:17:16;;;;;;;3.97;2.53;;;4.90;59.60;;;7.48;44.63;101903.34;5117958;27;20665;-58
2023/03/16 01:19:45;;;;;;;5.13;2.73;;;4.90;59.60;;;7.45;45.14;101899.19;5118640;28;20197;-58
2023/03/16 01:22:13;;;;;;;4.03;2.60;;;4.80;59.60;;;7.48;45.67;101898.13;5118089;28;20616;-57
2023/03/16 01:24:43;;;;;;;4.13;2.63;;;4.80;60.60;;;7.55;44.86;101898.44;5100621;27;20402;-56
2023/03/16 01:27:12;;;;;;;4.90;2.67;;;4.80;60.70;;;7.58;45.45;101896.41;5097890;28;20188;-56
2023/03/16 01:29:39;;;;;;;5.13;2.93;;;4.80;60.90;;;7.62;45.13;101895.19;5097445;28;20192;-55
2023/03/16 01:32:06;;;;;;;4.23;2.20;;;4.90;61.00;;;7.67;45.17;101884.31;5097546;28;20206;-57
2023/03/16 01:34:34;;;;;;;3.90;2.50;;;4.90;60.60;;;7.67;44.80;101889.56;5098036;28;20255;-60
2023/03/16 01:37:02;;;;;;;4.73;2.60;;;4.90;60.20;;;7.64;45.10;101882.78;5097766;28;20264;-56
2023/03/16 01:39:30;;;;;;;2.37;2.00;;;4.90;60.50;;;7.66;45.46;101888.72;5096007;28;20214;-54
2023/03/16 01:41:56;;;;;;;4.90;3.00;;;4.90;60.70;;;7.66;45.49;101886.09;5097402;28;20209;-58
2023/03/16 01:44:31;;;;;;;4.23;2.50;;;4.90;60.50;;;7.66;45.31;101888.72;5096995;28;20557;-57
2023/03/16 01:46:58;;;;;;;6.17;2.63;;;4.90;60.30;;;7.60;44.83;101881.41;5098040;28;20184;-56
2023/03/16 01:49:31;;;;;;;2.63;2.20;;;4.90;59.90;;;7.53;44.55;101872.38;5099708;28;20520;-57
2023/03/16 01:52:05;;;;;;;4.33;2.57;;;4.80;59.70;;;7.50;44.91;101875.25;5097705;28;20524;-57
2023/03/16 01:54:38;;;;;;;4.27;2.50;;;4.80;60.40;;;7.49;45.08;101869.16;5097508;28;20210;-57
2023/03/16 01:57:10;;;;;;;3.17;2.80;;;4.80;60.40;;;7.50;45.63;101875.25;5097802;28;20547;-57
2023/03/16 01:59:43;;;;;;;4.13;2.43;;;4.80;61.50;;;7.55;45.97;101870.47;5097316;28;20180;-57
2023/03/16 02:02:17;;;;;;;5.13;2.87;;;4.80;61.70;;;7.62;46.00;101863.75;5134300;27;20184;-57
2023/03/16 02:04:51;;;;;;;4.00;2.50;;;4.80;61.60;;;7.70;45.73;101866.53;5135852;27;20295;-57
2023/03/16 02:07:23;;;;;;;4.47;2.20;;;4.90;61.30;;;7.74;44.76;101870.59;5119646;27;20181;-57
2023/03/16 02:09:57;;;;;;;5.40;2.40;;;4.90;60.50;;;7.74;45.07;101857.50;5137771;27;20177;-57
2023/03/16 02:12:25;;;;;;;3.43;2.53;;;5.00;60.60;;;7.77;45.09;101861.66;5126874;27;20198;-60
2023/03/16 02:14:52;;;;;;;5.50;2.67;;;5.00;60.60;;;7.78;45.24;101856.25;5117082;28;20238;-59
2023/03/16 02:17:23;;;;;;;4.93;2.47;;;5.00;60.60;;;7.81;44.74;101845.53;5116689;28;20297;-57
2023/03/16 02:20:08;;;;;;;5.00;2.07;;;5.00;60.20;;;7.75;44.80;101848.66;5117897;28;20197;-58
2023/03/16 02:22:41;;;;;;;5.33;2.43;;;5.00;59.90;;;7.72;44.62;101843.69;5115972;28;20227;-56
2023/03/16 02:25:09;;;;;;;5.13;2.47;;;5.00;59.90;;;7.69;44.99;101838.69;5117255;28;20190;-56
2023/03/16 02:27:49;;;;;;;5.87;2.43;;;5.00;60.30;;;7.72;45.17;101833.22;5117099;28;20680;-57
2023/03/16 02:30:20;;;;;;;4.23;2.20;;;5.00;60.60;;;7.76;44.92;101839.84;5117432;28;20193;-54
2023/03/16 02:32:52;;;;;;;3.63;2.10;;;5.00;60.20;;;7.67;44.23;101835.38;5116690;28;20172;-57
2023/03/16 02:35:19;;;;;;;6.53;2.70;;;5.00;59.30;;;7.59;44.03;101837.81;5116923;28;20181;-57
2023/03/16 02:37:46;;;;;;;7.60;3.93;;;4.90;59.00;;;7.47;44.61;101834.41;5116676;28;20188;-56
2023/03/16 02:40:21;;;;;;;4.13;2.63;;;4.90;59.00;;;7.36;44.19;101831.88;5116895;28;20195;-55
2023/03/16 02:42:57;;;;;;;6.80;2.77;;;4.80;59.10;;;7.29;45.05;101835.13;5111582;28;20190;-58
2023/03/16 02:45:32;;;;;;;3.57;2.20;;;4.70;59.40;;;7.25;45.03;101838.94;5105326;28;20192;-58
2023/03/16 02:48:06;;;;;;;5.80;2.73;;;4.70;59.80;;;7.22;45.09;101840.03;5116845;28;20176;-53
2023/03/16 02:50:33;;;;;;;2.87;2.13;;;4.60;59.90;;;7.20;45.50;101830.63;5116722;28;20191;-54
2023/03/16 02:53:00;;;;;;;5.23;2.80;;;4.60;60.20;;;7.18;45.21;101830.75;5119912;28;20215;-54
2023/03/16 02:55:26;;;;;;;3.73;2.27;;;4.50;60.40;;;7.20;46.02;101828.03;5119712;28;20188;-54
2023/03/16 02:57:53;;;;;;;4.53;2.40;;;4.50;60.90;;;7.26;45.89;101819.66;5117757;28;20208;-55
2023/03/16 03:00:21;;;;;;;2.73;2.27;;;4.60;61.30;;;7.26;44.93;101819.66;5120112;27;20547;-55
2023/03/16 03:02:51;;;;;;;5.17;2.53;;;4.60;60.90;;;7.23;45.10;101822.50;5118834;27;20216;-55
2023/03/16 03:05:18;;;;;;;3.83;2.77;;;4.50;60.70;;;7.24;45.39;101827.63;5116653;28;20185;-57
2023/03/16 03:07:45;;;;;;;7.87;2.70;;;4.60;61.00;;;7.25;45.31;101831.91;5123802;27;20196;-55
2023/03/16 03:10:12;;;;;;;4.47;2.73;;;4.60;60.90;;;7.24;45.12;101829.44;5136208;27;20720;-55
2023/03/16 03:12:39;;;;;;;4.53;2.23;;;4.50;60.60;;;7.17;45.62;101831.72;5124193;27;20707;-54
2023/03/16 03:15:07;;;;;;;3.63;2.30;;;4.50;60.40;;;7.10;45.22;101832.34;5116560;28;20707;-54
2023/03/16 03:17:36;;;;;;;6.70;3.10;;;4.50;60.60;;;7.03;46.17;101828.56;5115741;28;20220;-54
2023/03/16 03:20:12;;;;;;;4.20;2.83;;;4.40;60.70;;;6.98;45.32;101821.09;5116243;28;20195;-57
2023/03/16 03:22:39;;;;;;;3.93;2.83;;;4.40;60.90;;;7.02;46.03;101824.28;5116494;28;20667;-57
2023/03/16 03:25:07;;;;;;;2.90;2.60;;;4.40;61.80;;;7.09;46.21;101828.88;5115965;28;20202;-57
2023/03/16 03:27:34;;;;;;;4.73;3.00;;;4.40;62.20;;;7.14;45.71;101821.50;5115573;28;20602;-57
2023/03/16 03:30:02;;;;;;;4.03;2.80;;;4.40;61.60;;;7.18;45.73;101816.84;5115917;28;20250;-57
2023/03/16 03:32:29;;;;;;;4.77;3.03;;;4.40;62.00;;;7.26;46.16;101824.88;5115327;28;20199;-57
2023/03/16 03:34:56;;;;;;;4.17;3.27;;;4.50;62.40;;;7.26;45.72;101824.88;5114834;27;20197;-57
2023/03/16 03:37:24;;;;;;;5.70;3.13;;;4.50;61.80;;;7.29;45.80;101819.41;5115777;28;20225;-57
2023/03/16 03:39:52;;;;;;;3.40;3.00;;;4.60;62.20;;;7.31;46.30;101817.50;5115713;28;20212;-57
2023/03/16 03:42:22;;;;;;;5.00;3.27;;;4.60;61.70;;;7.27;45.96;101818.72;5115621;27;20204;-56
2023/03/16 03:44:52;;;;;;;6.10;2.90;;;4.60;61.40;;;7.19;46.31;101818.50;5110977;28;20269;-55
2023/03/16 03:47:20;;;;;;;4.50;2.97;;;4.60;61.40;;;7.16;45.90;101818.75;5116577;27;20183;-54
2023/03/16 03:49:47;;;;;;;5.87;3.30;;;4.60;61.60;;;7.15;46.51;101819.72;5115783;28;20184;-54
2023/03/16 03:52:14;;;;;;;6.13;3.10;;;4.50;61.90;;;7.14;46.59;101821.50;5115718;28;20249;-55
2023/03/16 03:54:42;;;;;;;6.33;2.90;;;4.50;62.60;;;7.17;46.24;101820.41;5104901;28;20240;-54
2023/03/16 03:57:12;;;;;;;6.47;3.33;;;4.50;62.60;;;7.18;46.36;101820.28;5111481;28;20212;-56
2023/03/16 03:59:42;;;;;;;5.17;2.97;;;4.50;62.80;;;7.17;46.83;101810.78;5115899;28;20183;-55
2023/03/16 04:02:10;;;;;;;4.80;3.77;;;4.50;62.60;;;7.13;46.57;101813.78;5134159;27;20273;-56
2023/03/16 04:04:38;;;;;;;6.23;2.97;;;4.50;62.90;;;7.07;47.24;101819.50;5135857;27;20567;-54
2023/03/16 04:07:05;;;;;;;5.27;3.27;;;4.50;63.00;;;7.06;46.99;101821.28;5135808;27;20185;-56
2023/03/16 04:09:32;;;;;;;3.87;2.73;;;4.40;63.30;;;7.08;47.14;101822.00;5115132;28;20594;-55
2023/03/16 04:12:02;;;;;;;4.07;2.70;;;4.40;63.60;;;7.14;46.72;101820.66;5115752;28;20216;-54
2023/03/16 04:14:30;;;;;;;4.60;3.10;;;4.40;63.50;;;7.17;47.19;101825.66;5115011;28;20255;-56
2023/03/16 04:16:57;;;;;;;7.43;3.70;;;4.40;63.50;;;7.18;47.08;101822.09;5114876;28;20677;-55
2023/03/16 04:19:25;;;;;;;8.10;3.13;;;4.40;63.40;;;7.20;47.42;101814.94;5115409;28;20195;-55
2023/03/16 04:21:52;;;;;;;5.53;3.20;;;4.50;63.30;;;7.24;47.10;101821.56;5115191;28;20571;-55
2023/03/16 04:24:21;;;;;;;4.43;2.73;;;4.50;63.50;;;7.23;46.57;101814.66;5114384;28;20307;-55
2023/03/16 04:26:48;;;;;;;5.70;3.10;;;4.50;63.20;;;7.25;46.81;101818.81;5115492;28;20218;-56
2023/03/16 04:29:19;;;;;;;5.17;2.67;;;4.50;63.20;;;7.27;46.37;101808.22;5114828;28;20300;-54
2023/03/16 04:31:46;;;;;;;4.07;2.63;;;4.50;63.20;;;7.25;46.62;101805.72;5115876;28;20266;-57
2023/03/16 04:34:14;;;;;;;7.80;2.90;;;4.50;63.10;;;7.24;47.06;101803.25;5115566;28;20213;-55
2023/03/16 04:36:41;;;;;;;7.77;3.17;;;4.50;63.00;;;7.18;47.06;101798.53;5115466;28;20209;-55
2023/03/16 04:39:09;;;;;;;6.63;3.00;;;4.50;63.20;;;7.19;47.11;101792.31;5114385;28;20191;-57
2023/03/16 04:41:36;;;;;;;9.37;3.17;;;4.50;63.20;;;7.22;47.31;101794.69;5114677;28;20189;-56
2023/03/16 04:44:03;;;;;;;6.93;3.03;;;4.50;63.30;;;7.23;46.71;101794.56;5114212;28;20207;-55
2023/03/16 04:46:32;;;;;;;4.07;2.70;;;4.50;63.40;;;7.24;46.99;101792.78;5114413;28;20180;-56
2023/03/16 04:48:59;;;;;;;5.43;2.87;;;4.50;63.40;;;7.27;46.76;101789.91;5114259;28;20215;-57
2023/03/16 04:51:27;;;;;;;4.73;2.77;;;4.50;63.30;;;7.19;47.17;101787.91;5114664;28;20188;-54
2023/03/16 04:53:54;;;;;;;7.37;3.27;;;4.50;63.40;;;7.18;47.40;101782.81;5113824;28;20304;-57
2023/03/16 04:56:22;;;;;;;5.13;2.90;;;4.50;63.50;;;7.23;47.03;101772.78;5114537;28;20568;-56
2023/03/16 04:58:49;;;;;;;5.27;2.47;;;4.50;63.80;;;7.36;47.69;101773.44;5115407;28;20185;-58
2023/03/16 05:01:17;;;;;;;4.33;2.40;;;4.50;64.20;;;7.49;46.95;101774.03;5126730;27;20548;-55
2023/03/16 05:03:45;;;;;;;9.47;3.03;;;4.60;64.30;;;7.60;46.55;101773.16;5138293;27;20236;-55
2023/03/16 05:06:12;;;;;;;5.27;3.73;;;4.70;63.90;;;7.62;46.38;101779.94;5146052;27;20217;-55
2023/03/16 05:08:40;;;;;;;7.53;4.07;;;4.80;63.40;;;7.64;46.12;101774.53;5147198;27;20216;-58
2023/03/16 05:11:07;;;;;;;4.77;3.07;;;4.80;63.20;;;7.62;45.75;101769.44;5135949;28;20193;-58
2023/03/16 05:13:34;;;;;;;6.83;3.37;;;4.80;63.50;;;7.60;45.85;101755.66;5120369;28;20209;-57
2023/03/16 05:16:01;;;;;;;4.00;2.70;;;4.90;62.60;;;7.58;46.34;101760.19;5119973;28;20201;-58
2023/03/16 05:18:28;;;;;;;5.63;2.67;;;4.80;62.30;;;7.58;46.63;101757.56;5114813;28;20222;-55
2023/03/16 05:20:56;;;;;;;3.77;2.90;;;4.80;62.40;;;7.59;46.35;101764.47;5118508;28;20239;-60
2023/03/16 05:23:23;;;;;;;4.73;2.57;;;4.80;62.60;;;7.64;46.39;101766.69;5116350;27;20229;-56
2023/03/16 05:25:51;;;;;;;5.37;2.90;;;4.80;62.70;;;7.66;45.95;101762.13;5114068;28;20181;-55
2023/03/16 05:28:18;;;;;;;6.33;3.50;;;4.80;62.60;;;7.72;46.33;101765.09;5110826;28;20205;-58
2023/03/16 05:30:45;;;;;;;5.57;2.83;;;4.90;62.80;;;7.76;45.63;101765.66;5095840;28;20733;-56
2023/03/16 05:33:12;;;;;;;5.23;3.17;;;4.90;62.50;;;7.72;45.48;101765.09;5093181;28;20310;-58
2023/03/16 05:35:39;;;;;;;5.70;3.40;;;4.90;62.10;;;7.67;45.86;101767.28;5093111;28;20192;-57
2023/03/16 05:38:08;;;;;;;5.83;3.33;;;4.90;61.80;;;7.55;45.99;101757.81;5094006;28;20218;-58
2023/03/16 05:40:36;;;;;;;5.20;3.70;;;4.90;61.80;;;7.47;45.56;101757.63;5093097;28;20190;-58
2023/03/16 05:43:03;;;;;;;6.00;3.47;;;4.80;61.80;;;7.45;46.37;101764.78;5093137;28;20667;-57
2023/03/16 05:45:30;;;;;;;8.67;3.53;;;4.80;61.90;;;7.40;46.49;101764.34;5093527;28;20647;-57
2023/03/16 05:47:57;;;;;;;7.47;3.40;;;4.80;62.20;;;7.37;46.51;101760.19;5093312;27;20240;-57
2023/03/16 05:50:25;;;;;;;7.67;3.30;;;4.80;62.20;;;7.37;46.08;101754.97;5101248;28;20203;-57
2023/03/16 05:52:53;;;;;;;6.10;3.77;;;4.80;62.40;;;7.41;45.96;101758.16;5113394;28;20208;-57
2023/03/16 05:55:22;;;;;;;5.33;3.60;;;4.70;62.30;;;7.38;46.91;101755.78;5113469;28;20216;-58
2023/03/16 05:57:49;;;;;;;6.30;4.07;;;4.70;62.50;;;7.38;46.54;101761.03;5116292;28;20269;-57
2023/03/16 06:00:18;;;;;;;6.63;3.20;;;4.70;62.60;;;7.39;46.70;101754.84;5119628;27;20189;-57
2023/03/16 06:02:48;;;;;;;4.77;3.27;;;4.70;62.70;;;7.44;46.61;101755.28;5137409;27;20211;-58
2023/03/16 06:05:19;;;;;;;5.00;3.30;;;4.70;62.90;;;7.51;46.45;101748.59;5136317;27;20240;-55
2023/03/16 06:07:47;;;;;;;6.50;3.57;;;4.70;62.90;;;7.57;46.50;101761.16;5131680;27;20186;-58
2023/03/16 06:10:14;;;;;;;10.10;3.20;;;4.70;63.20;;;7.66;46.17;101749.88;5116697;28;20820;-60
2023/03/16 06:12:43;;;;;;;4.20;3.17;;;4.80;63.40;;;7.70;46.29;101751.25;5115483;28;20236;-58
2023/03/16 06:15:11;;;;;;;5.17;3.33;;;4.80;63.30;;;7.66;46.38;101757.75;5117027;28;20276;-55
2023/03/16 06:17:40;;;;;;;9.07;3.00;;;4.90;63.20;;;7.68;46.06;101755.00;5119642;28;20219;-56
2023/03/16 06:20:11;;;;;;;6.27;3.10;;;4.90;63.00;;;7.67;46.45;101751.56;5119111;28;20184;-57
2023/03/16 06:22:41;;;;;;;7.67;3.30;;;4.90;63.10;;;7.61;46.11;101765.16;5116612;28;20188;-56
2023/03/16 06:25:11;;;;;;;6.67;3.00;;;4.90;63.00;;;7.64;46.35;101764.91;5116819;28;20581;-57
2023/03/16 06:27:39;;;;;;;5.07;3.23;;;4.90;63.00;;;7.64;46.35;101767.53;5116714;28;20199;-56
2023/03/16 06:30:11;;;;;;;4.43;3.00;;;4.90;63.00;;;7.60;46.52;101776.59;5116619;28;20193;-55
2023/03/16 06:32:43;;;;;;;4.93;2.97;;;4.90;63.00;;;7.67;46.57;101785.59;5116100;28;20225;-57
2023/03/16 06:35:11;;;;;;;5.50;2.50;;;4.90;63.10;;;7.74;46.85;101792.00;5115698;28;20190;-59
2023/03/16 06:37:38;;;;;;;7.47;2.83;;;5.00;63.30;;;7.84;46.46;101786.78;5116637;28;20673;-55
2023/03/16 06:40:07;;;;;;;4.53;3.13;;;5.00;63.30;;;7.94;46.20;101790.28;5116207;28;20193;-57
2023/03/16 06:42:34;;;;;;;5.20;2.90;;;5.10;63.50;;;8.04;45.98;101784.13;5115899;28;20187;-54
2023/03/16 06:45:01;;;;;;;4.93;3.70;;;5.10;63.30;;;8.15;45.94;101789.25;5116468;28;20187;-58
2023/03/16 06:47:29;;;;;;;7.60;2.73;;;5.20;63.30;;;8.27;45.74;101789.19;5115280;27;20230;-58
2023/03/16 06:49:56;;;;;;;4.10;2.63;;;5.30;63.30;;;8.38;45.42;101791.72;5117308;28;20282;-56
2023/03/16 06:52:23;;;;;;;10.50;3.13;;;5.40;62.90;;;8.35;45.56;101784.09;5119467;28;20303;-58
2023/03/16 06:54:50;;;;;;;7.20;3.17;;;5.50;62.50;;;8.42;45.57;101785.22;5119585;28;20212;-57
2023/03/16 06:57:17;;;;;;;5.90;2.90;;;5.50;62.50;;;8.47;45.45;101783.03;5118424;28;20277;-57
2023/03/16 06:59:44;;;;;;;5.30;2.67;;;5.60;62.20;;;8.56;45.31;101788.28;5117532;28;20205;-57
2023/03/16 07:02:13;;;;;;;6.03;2.77;;;5.60;62.20;;;8.61;45.11;101786.09;5137566;27;20195;-57
2023/03/16 07:04:42;;;;;;;4.93;2.97;;;5.70;61.90;;;8.66;44.94;101785.69;5138576;27;20712;-58
2023/03/16 07:07:10;;;;;;;7.00;3.00;;;5.80;61.80;;;8.69;44.76;101778.38;5137041;27;20196;-59
2023/03/16 07:09:37;;;;;;;5.93;3.17;;;5.80;61.40;;;8.70;44.80;101789.72;5116560;28;20657;-59
2023/03/16 07:12:08;;;;;;;4.60;3.10;;;5.90;61.40;;;8.71;44.84;101786.09;5117549;28;20191;-59
2023/03/16 07:14:36;;;;;;;4.07;2.57;;;5.90;61.20;;;8.76;44.78;101783.91;5117427;28;20659;-54
2023/03/16 07:17:03;;;;;;;5.30;2.50;;;5.90;61.00;;;8.80;44.73;101786.13;5116037;28;20216;-58
2023/03/16 07:19:31;;;;;;;4.07;2.93;;;5.90;60.90;;;8.82;45.00;101793.84;5115969;28;20274;-57
2023/03/16 07:22:01;;;;;;;6.70;3.63;;;6.00;60.90;;;8.90;44.46;101785.28;5115414;28;20542;-57
2023/03/16 07:24:29;;;;;;;8.07;3.23;;;6.10;60.90;;;8.95;44.55;101794.41;5116077;28;20203;-58
2023/03/16 07:26:56;;;;;;;7.70;2.93;;;6.10;60.80;;;9.00;44.55;101786.13;5115875;28;20272;-61
2023/03/16 07:29:24;;;;;;;6.80;2.90;;;6.10;60.70;;;9.07;44.04;101792.47;5095922;27;20209;-58
2023/03/16 07:31:52;;;;;;;4.87;2.93;;;6.20;60.50;;;9.15;44.33;101795.25;5099100;28;20552;-57
2023/03/16 07:34:20;;;;;;;5.97;3.20;;;6.30;60.60;;;9.19;44.26;101797.47;5095815;28;20745;-58
2023/03/16 07:36:51;;;;;;;5.90;3.03;;;6.30;60.30;;;9.23;44.48;101792.75;5095929;28;20242;-57
2023/03/16 07:39:20;;;;;;;5.57;3.20;;;6.40;60.20;;;9.41;43.75;101797.13;5096511;28;20365;-58
2023/03/16 07:41:47;;;;;;;6.07;3.33;;;6.50;60.50;;;9.49;43.94;101799.91;5095576;28;20227;-56
2023/03/16 07:44:14;;;;;;;5.53;2.93;;;6.60;60.10;;;9.55;43.39;101796.69;5114325;28;20239;-58
2023/03/16 07:46:41;;;;;;;3.40;2.53;;;6.60;59.80;;;9.68;43.56;101798.19;5113822;27;20192;-61
2023/03/16 07:49:09;;;;;;;3.13;2.37;;;6.70;59.90;;;9.78;43.56;101799.81;5100039;28;20187;-58
2023/03/16 07:51:36;;;;;;;6.00;2.67;;;6.80;59.70;;;9.96;43.29;101797.28;5095113;28;20193;-58
2023/03/16 07:54:04;;;;;;;5.27;2.87;;;6.90;59.60;;;10.15;43.02;101803.31;5094617;28;20222;-58
2023/03/16 07:56:32;;;;;;;6.17;2.70;;;7.00;59.30;;;10.39;42.98;101797.50;5095733;28;20201;-56
2023/03/16 07:59:14;;;;;;;3.13;2.40;;;7.20;59.50;;;10.65;41.25;101793.19;5102104;28;20724;-58
2023/03/16 08:01:41;;;;;;;3.97;2.57;;;7.40;58.40;;;10.84;41.52;101785.16;5130477;27;20195;-57
2023/03/16 08:04:11;;;;;;;6.83;2.80;;;7.60;58.00;;;11.15;40.44;101780.31;5136118;27;20207;-58
2023/03/16 08:06:38;;;;;;;5.40;3.03;;;7.80;57.10;;;11.38;40.05;101788.59;5134000;27;20205;-57
2023/03/16 08:09:05;;;;;;;6.53;2.63;;;8.10;56.50;;;11.77;39.70;101789.84;5105188;27;20211;-57
2023/03/16 08:11:33;;;;;;;4.13;2.53;;;8.40;56.40;;;12.15;39.11;101789.38;5112889;28;20195;-56
2023/03/16 08:14:00;;;;;;;5.93;2.87;;;8.70;55.70;;;12.50;38.46;101787.53;5122236;28;20211;-56
2023/03/16 08:16:27;;;;;;;5.97;2.83;;;8.90;55.20;;;12.68;37.56;101780.31;5122784;28;20675;-56
2023/03/16 08:18:56;;;;;;;6.03;3.30;;;9.20;54.10;;;12.80;37.94;101784.28;5108066;28;20220;-57
2023/03/16 08:21:23;;;;;;;6.27;3.30;;;9.40;53.90;;;12.89;37.73;101791.22;5094655;28;20230;-59
2023/03/16 08:23:50;;;;;;;4.17;2.87;;;9.60;53.70;;;12.80;37.58;101784.28;5093577;28;20220;-57
2023/03/16 08:26:22;;;;;;;4.93;3.00;;;9.70;52.80;;;12.88;37.73;101789.59;5094366;28;20216;-56
2023/03/16 08:28:52;;;;;;;7.43;3.20;;;9.70;52.70;;;12.96;37.14;101801.97;5114013;28;20636;-55
2023/03/16 08:31:22;;;;;;;4.57;2.60;;;9.80;52.20;;;12.76;36.20;101796.19;5113696;28;20628;-56
2023/03/16 08:33:49;;;;;;;4.37;2.70;;;9.70;50.70;;;12.77;36.50;101800.44;5112926;27;20220;-61
2023/03/16 08:36:21;;;;;;;2.80;2.40;;;9.70;50.90;;;12.80;36.15;101794.84;5094491;28;20572;-56
2023/03/16 08:38:50;;;;;;;3.93;2.90;;;9.70;50.30;;;12.96;35.87;101794.88;5112721;28;20229;-58
2023/03/16 08:41:33;;;;;;;5.67;2.93;;;9.80;50.30;;;13.20;35.72;101791.44;5114144;28;20191;-56
2023/03/16 08:44:02;;;;;;;4.80;2.60;;;9.90;50.00;;;13.49;35.43;101782.00;5112114;28;20207;-56
2023/03/16 08:46:29;;;;;;;4.17;2.57;;;10.10;49.00;;;13.99;34.43;101786.19;5094405;28;20211;-59
2023/03/16 08:48:58;;;;;;;6.20;2.97;;;10.40;48.30;;;13.95;33.45;101787.53;5109626;28;20184;-58
2023/03/16 08:51:26;;;;;;;5.17;2.60;;;10.50;46.40;;;13.95;33.29;101780.38;5093340;28;20661;-54
2023/03/16 08:53:54;;;;;;;6.13;2.50;;;10.70;45.80;;;14.16;33.65;101779.84;5106989;28;20215;-58
2023/03/16 08:56:21;;;;;;;5.60;3.27;;;10.90;45.80;;;14.13;32.85;101796.06;5113896;28;20275;-56
2023/03/16 08:58:50;;;;;;;4.17;2.60;;;10.90;44.80;;;14.46;33.11;101765.81;5094344;28;20219;-59
2023/03/16 09:01:19;;;;;;;4.93;2.80;;;11.20;44.90;;;14.29;32.58;101777.44;5116240;28;20203;-58
2023/03/16 09:03:46;;;;;;;5.17;2.90;;;11.10;43.60;;;14.43;32.67;101782.03;5117643;27;20227;-55
2023/03/16 09:06:15;;;;;;;4.30;2.77;;;11.30;44.10;;;14.42;32.30;101775.09;5112580;28;20221;-57
2023/03/16 09:08:44;;;;;;;3.73;2.67;;;11.30;43.30;;;14.55;32.62;101779.81;5127777;28;20203;-59
2023/03/16 09:11:15;;;;;;;3.67;2.30;;;11.40;43.70;;;14.85;32.04;101777.16;5134310;27;20187;-57
2023/03/16 09:13:49;;;;;;;3.17;2.50;;;11.60;43.50;;;14.77;32.19;101774.53;5112789;28;20245;-55
2023/03/16 09:16:31;;;;;;;3.73;2.40;;;11.60;43.10;;;14.83;32.09;101768.53;5115843;28;20203;-57
2023/03/16 09:19:07;;;;;;;6.00;2.30;;;11.60;42.70;;;15.01;32.00;101770.88;5117103;28;20311;-55
2023/03/16 09:21:38;;;;;;;5.13;2.53;;;11.80;42.80;;;15.09;31.52;101770.00;5107272;28;20196;-59
2023/03/16 09:24:07;;;;;;;3.03;2.47;;;11.80;42.10;;;15.19;31.13;101773.25;5093364;27;20315;-57
2023/03/16 09:26:34;;;;;;;3.00;2.00;;;11.90;41.80;;;15.07;31.11;101774.66;5094681;28;20208;-57
2023/03/16 09:29:02;;;;;;;2.83;2.30;;;11.90;41.40;;;15.31;31.45;101766.47;5093100;28;20191;-57
2023/03/16 09:31:32;;;;;;;4.07;2.40;;;12.00;41.80;;;15.62;30.40;101763.75;5107062;28;20202;-58
2023/03/16 09:33:59;;;;;;;6.50;2.27;;;12.10;41.20;;;15.89;30.32;101757.78;5117336;27;20223;-57
2023/03/16 09:36:27;;;;;;;4.10;2.60;;;12.30;41.20;;;15.82;29.68;101765.66;5117798;28;20263;-55
2023/03/16 09:38:55;;;;;;;2.63;2.23;;;12.30;40.10;;;15.79;29.53;101754.56;5118091;28;20235;-57
2023/03/16 09:41:43;;;;;;;5.67;2.67;;;12.40;39.60;;;15.79;29.53;101752.75;5116943;28;20195;-57
2023/03/16 09:44:30;;;;;;;4.00;2.20;;;12.50;39.60;;;16.09;29.46;101759.69;5116887;28;20242;-58
2023/03/16 09:47:03;;;;;;;4.07;2.23;;;12.60;39.60;;;16.34;29.52;101756.69;5117729;28;20180;-58
2023/03/16 09:49:36;;;;;;;4.53;2.40;;;12.80;39.70;;;16.33;29.20;101758.53;5134285;27;20569;-56
2023/03/16 09:52:22;;;;;;;3.27;2.40;;;12.90;38.70;;;16.36;29.27;101757.34;5133400;27;20283;-58
2023/03/16 09:54:58;;;;;;;3.50;2.30;;;13.00;39.20;;;16.23;28.86;101766.00;5117778;28;20691;-56
2023/03/16 09:57:29;;;;;;;3.27;2.13;;;13.00;38.00;;;16.27;28.95;101752.16;5129000;27;20202;-60
2023/03/16 10:00:09;;;;;;;4.47;2.00;;;13.10;37.90;;;16.23;28.69;101748.22;5117341;27;20199;-58
2023/03/16 10:03:07;;;;;;;4.73;2.03;;;13.00;37.80;;;15.89;29.57;101748.00;5110945;27;20208;-57
2023/03/16 10:05:46;;;;;;;3.28;2.00;;;12.90;38.10;;;16.10;29.42;101758.69;5112037;27;20435;-58
2023/03/16 10:08:20;;;;;;;4.43;2.28;;;13.00;38.40;;;16.07;28.63;101747.59;5107798;27;20453;-59
2023/03/16 10:11:09;;;;;;;3.40;2.17;;;12.90;37.60;;;15.85;28.82;101749.38;5109314;27;20582;-58
2023/03/16 10:13:52;;;;;;;3.33;2.23;;;12.80;37.40;;;15.47;29.63;101745.16;5109980;27;20238;-58
2023/03/16 10:16:26;;;;;;;3.47;2.17;;;12.60;37.80;;;15.41;29.53;101751.97;5110803;27;20204;-59
2023/03/16 10:19:01;;;;;;;3.17;2.10;;;12.60;37.90;;;15.25;29.75;101746.00;5111721;27;20584;-58
2023/03/16 10:21:36;;;;;;;4.33;2.93;;;12.50;38.00;;;15.03;30.17;101731.75;5112799;27;20202;-58
2023/03/16 10:24:14;;;;;;;4.80;2.13;;;12.40;38.10;;;14.98;30.06;101733.28;5104766;27;20269;-57
2023/03/16 10:26:51;;;;;;;3.63;1.93;;;12.30;38.20;;;14.91;30.04;101739.31;5109551;27;20196;-60
2023/03/16 10:29:18;;;;;;;2.17;2.07;;;12.20;38.30;;;14.86;30.40;101735.53;5120585;27;20191;-58
2023/03/16 10:31:45;;;;;;;2.47;1.87;;;12.20;38.40;;;14.95;30.40;101733.66;5110411;27;20272;-59